Time;durP1;ratioP1;P1;durP2;ratioP2;P2;SDS_P1;SDS_P2;PMS_P1;PMS_P2;Temp;Humidity;BMP_temperature;BMP_pressure;BME280_temperature;BME280_humidity;BME280_pressure;Samples;Min_cycle;Max_cycle;Signal;HPM_P1;HPM_P2
2023/06/25 00:00:44;;;;;;;11.75;2.97;;;24.40;80.90;;;;;;5092392;28;20043;-69
2023/06/25 00:03:48;;;;;;;11.10;3.42;;;24.30;81.10;;;;;;5092028;28;20062;-69
2023/06/25 00:06:52;;;;;;;8.73;3.10;;;24.30;81.30;;;;;;5092088;28;20039;-69
2023/06/25 00:09:56;;;;;;;8.68;2.85;;;24.40;80.70;;;;;;5091973;28;20051;-69
2023/06/25 00:13:00;;;;;;;5.43;2.72;;;24.40;80.80;;;;;;5092004;28;20051;-69
2023/06/25 00:16:05;;;;;;;6.13;2.47;;;24.50;80.70;;;;;;5092323;28;20059;-69
2023/06/25 00:19:09;;;;;;;10.55;3.20;;;24.50;80.30;;;;;;5092315;28;20035;-70
2023/06/25 00:22:13;;;;;;;6.90;2.83;;;24.50;80.30;;;;;;5091818;28;20548;-70
2023/06/25 00:25:17;;;;;;;7.30;2.45;;;24.60;80.50;;;;;;5092045;28;20043;-70
2023/06/25 00:28:21;;;;;;;7.78;2.55;;;24.60;80.50;;;;;;5092054;28;20058;-69
2023/06/25 00:31:24;;;;;;;12.75;3.25;;;24.60;80.60;;;;;;5091848;28;20066;-69
2023/06/25 00:34:29;;;;;;;7.47;2.83;;;24.50;80.70;;;;;;5090699;28;20051;-70
2023/06/25 00:37:36;;;;;;;8.70;2.88;;;24.60;80.80;;;;;;5090945;28;20047;-70
2023/06/25 00:40:40;;;;;;;12.25;3.00;;;24.60;80.90;;;;;;5091731;28;20051;-70
2023/06/25 00:43:44;;;;;;;7.07;2.70;;;24.60;81.10;;;;;;5091432;28;20055;-69
2023/06/25 00:46:48;;;;;;;8.35;2.70;;;24.50;81.10;;;;;;5090588;28;20514;-70
2023/06/25 00:49:52;;;;;;;5.75;2.70;;;24.50;81.00;;;;;;5091392;28;20047;-70
2023/06/25 00:52:57;;;;;;;12.88;3.38;;;24.50;81.30;;;;;;5091488;28;20039;-70
2023/06/25 00:56:02;;;;;;;5.97;2.50;;;24.50;81.40;;;;;;5091234;28;20047;-70
2023/06/25 00:59:06;;;;;;;11.00;3.20;;;24.50;81.30;;;;;;5091416;28;20058;-70
2023/06/25 01:02:23;;;;;;;9.80;2.97;;;24.50;81.30;;;;;;5090055;28;20047;-70
2023/06/25 01:05:40;;;;;;;9.20;3.10;;;24.50;81.70;;;;;;5091293;28;20051;-70
2023/06/25 01:08:49;;;;;;;11.82;2.65;;;24.40;81.90;;;;;;5091135;28;20051;-69
2023/06/25 01:12:04;;;;;;;8.68;2.95;;;24.30;82.20;;;;;;5090425;28;20510;-70
2023/06/25 01:15:09;;;;;;;8.40;3.20;;;24.20;82.40;;;;;;5090842;28;20039;-70
2023/06/25 01:18:14;;;;;;;5.13;2.50;;;24.20;82.00;;;;;;5090933;28;20533;-70
2023/06/25 01:21:23;;;;;;;7.28;3.17;;;24.20;81.50;;;;;;5090818;28;20292;-70
2023/06/25 01:24:28;;;;;;;8.63;3.67;;;24.20;80.90;;;;;;5089987;28;20047;-70
2023/06/25 01:27:36;;;;;;;5.97;3.38;;;24.20;80.70;;;;;;5090776;28;20031;-70
2023/06/25 01:30:40;;;;;;;7.38;3.65;;;24.20;80.90;;;;;;5089934;28;20050;-70
2023/06/25 01:33:44;;;;;;;9.32;3.40;;;24.20;80.90;;;;;;5089750;28;20039;-71
2023/06/25 01:36:52;;;;;;;9.52;3.28;;;24.30;80.90;;;;;;5090715;28;20421;-70
2023/06/25 01:39:59;;;;;;;6.90;3.80;;;24.20;81.50;;;;;;5090688;28;20047;-69
2023/06/25 01:43:04;;;;;;;9.93;3.03;;;24.10;81.00;;;;;;5089758;28;20074;-69
2023/06/25 01:46:08;;;;;;;7.95;2.88;;;24.10;81.10;;;;;;5092420;28;20047;-69
2023/06/25 01:49:12;;;;;;;7.53;3.50;;;24.10;81.30;;;;;;5094716;28;20507;-69
2023/06/25 01:52:16;;;;;;;5.80;3.15;;;24.10;81.20;;;;;;5094839;28;20498;-69
2023/06/25 01:55:20;;;;;;;4.38;2.90;;;24.20;81.40;;;;;;5094960;28;20067;-69
2023/06/25 01:58:24;;;;;;;5.60;2.47;;;24.20;81.30;;;;;;5093731;28;20404;-69
2023/06/25 02:01:29;;;;;;;6.72;3.03;;;24.20;80.80;;;;;;5093711;28;20051;-70
2023/06/25 02:04:33;;;;;;;14.32;3.80;;;24.30;81.60;;;;;;5094386;28;20047;-70
2023/06/25 02:41:42;;;;;;;9.18;3.47;;;24.00;81.90;;;;;;5129152;27;20390;-68
2023/06/25 02:44:46;;;;;;;10.52;4.43;;;24.10;82.80;;;;;;5116556;28;20559;-67
2023/06/25 02:47:50;;;;;;;10.43;3.20;;;24.10;83.00;;;;;;5129064;28;20039;-68
2023/06/25 02:50:55;;;;;;;9.85;3.50;;;24.10;83.00;;;;;;5116167;28;20054;-67
2023/06/25 02:53:59;;;;;;;6.85;3.40;;;24.10;83.80;;;;;;5116588;28;20036;-67
2023/06/25 02:57:03;;;;;;;8.10;3.60;;;24.10;84.50;;;;;;5128887;28;20031;-67
2023/06/25 03:00:09;;;;;;;8.98;3.72;;;24.10;84.20;;;;;;5116111;28;20031;-67
2023/06/25 03:03:16;;;;;;;7.35;3.55;;;24.00;84.60;;;;;;5116404;28;20031;-67
2023/06/25 03:06:20;;;;;;;8.15;3.90;;;23.80;84.90;;;;;;5116371;28;20036;-68
2023/06/25 03:09:24;;;;;;;9.57;3.63;;;23.80;85.10;;;;;;5116264;28;20379;-67
2023/06/25 03:25:00;;;;;;;10.73;3.53;;;23.70;85.40;;;;;;5108389;27;20379;-68
2023/06/25 03:39:10;;;;;;;9.48;3.72;;;23.50;85.50;;;;;;5108775;27;20388;-66
2023/06/25 03:42:14;;;;;;;6.72;3.50;;;23.40;86.70;;;;;;5108110;28;20555;-67
2023/06/25 03:45:18;;;;;;;9.95;3.55;;;23.40;86.90;;;;;;5108739;28;20040;-66
2023/06/25 03:48:22;;;;;;;7.68;3.95;;;23.40;86.30;;;;;;5107826;28;20052;-68
2023/06/25 03:51:26;;;;;;;7.97;3.33;;;23.40;86.80;;;;;;5108864;28;20514;-68
2023/06/25 03:54:30;;;;;;;7.07;3.95;;;23.40;86.60;;;;;;5108002;28;20047;-68
2023/06/25 03:57:34;;;;;;;10.43;3.80;;;23.50;87.40;;;;;;5107663;28;20543;-68
2023/06/25 04:00:39;;;;;;;11.57;4.00;;;23.50;87.60;;;;;;5108346;28;20118;-68
2023/06/25 04:03:43;;;;;;;7.70;3.72;;;23.50;85.90;;;;;;5107771;28;20106;-66
2023/06/25 04:06:47;;;;;;;7.90;3.97;;;23.50;85.50;;;;;;5107554;28;20031;-68
2023/06/25 04:09:52;;;;;;;12.05;3.85;;;23.50;85.60;;;;;;5107568;28;20044;-68
2023/06/25 04:12:56;;;;;;;8.50;3.10;;;23.60;84.50;;;;;;5108387;28;20039;-68
2023/06/25 04:16:00;;;;;;;15.63;4.03;;;23.80;84.70;;;;;;5107556;28;20043;-68
2023/06/25 04:19:04;;;;;;;12.52;3.92;;;24.00;85.70;;;;;;5130828;27;20034;-68
2023/06/25 04:22:09;;;;;;;19.67;3.92;;;24.10;85.90;;;;;;5107350;28;20050;-68
2023/06/25 04:25:13;;;;;;;18.50;4.57;;;24.00;86.50;;;;;;5108121;28;20055;-67
2023/06/25 04:28:17;;;;;;;18.05;4.15;;;24.10;86.90;;;;;;5106743;28;20055;-67
2023/06/25 04:31:23;;;;;;;12.07;4.05;;;24.10;86.30;;;;;;5108039;28;20038;-68
2023/06/25 04:34:28;;;;;;;17.70;4.88;;;24.20;86.10;;;;;;5106732;28;20051;-67
2023/06/25 04:37:32;;;;;;;14.57;4.82;;;24.20;86.10;;;;;;5106828;28;20121;-68
2023/06/25 04:40:36;;;;;;;17.10;5.90;;;24.40;86.20;;;;;;5093468;28;20051;-67
2023/06/25 04:43:40;;;;;;;13.90;5.38;;;24.80;85.20;;;;;;5093243;28;20063;-67
2023/06/25 04:46:45;;;;;;;35.67;7.97;;;25.10;83.40;;;;;;5093187;28;20526;-67
2023/06/25 04:49:49;;;;;;;30.35;7.85;;;25.20;83.70;;;;;;5093310;28;20415;-67
2023/06/25 04:52:54;;;;;;;38.10;7.97;;;25.30;83.40;;;;;;5093200;28;20514;-67
2023/06/25 04:55:58;;;;;;;29.08;7.88;;;25.40;83.40;;;;;;5093879;28;20498;-67
2023/06/25 04:59:03;;;;;;;25.50;6.78;;;25.40;83.30;;;;;;5092911;28;20039;-67
2023/06/25 05:02:07;;;;;;;20.00;5.63;;;25.50;83.20;;;;;;5093508;28;20043;-67
2023/06/25 05:05:10;;;;;;;17.02;4.70;;;25.60;83.30;;;;;;5093297;28;20047;-67
2023/06/25 05:08:17;;;;;;;11.95;4.15;;;25.80;82.70;;;;;;5093324;28;20055;-67
2023/06/25 05:11:22;;;;;;;18.20;5.40;;;26.00;82.00;;;;;;5093266;28;20043;-67
2023/06/25 05:14:27;;;;;;;25.88;6.38;;;26.20;82.50;;;;;;5093168;28;20506;-67
2023/06/25 05:17:30;;;;;;;23.10;5.13;;;26.40;82.30;;;;;;5093160;28;20047;-67
2023/06/25 05:20:35;;;;;;;31.33;6.82;;;26.60;81.90;;;;;;5093405;28;20066;-67
2023/06/25 05:23:44;;;;;;;23.77;5.20;;;26.70;81.20;;;;;;5092634;28;20058;-67
2023/06/25 05:26:48;;;;;;;19.85;4.50;;;26.90;79.60;;;;;;5093001;28;20055;-67
2023/06/25 05:29:52;;;;;;;13.57;4.05;;;27.20;78.80;;;;;;5093347;28;20052;-67
2023/06/25 05:32:56;;;;;;;20.52;4.05;;;27.50;78.10;;;;;;5093039;28;20043;-67
2023/06/25 05:36:00;;;;;;;10.90;3.83;;;27.70;77.50;;;;;;5092976;28;20055;-67
2023/06/25 05:39:04;;;;;;;10.80;3.58;;;28.00;77.40;;;;;;5092744;28;20063;-67
2023/06/25 05:42:08;;;;;;;14.77;3.83;;;28.20;76.70;;;;;;5092982;28;20051;-67
2023/06/25 05:45:12;;;;;;;15.50;4.30;;;28.40;76.90;;;;;;5092780;28;20043;-66
2023/06/25 05:48:16;;;;;;;12.60;3.97;;;28.50;75.30;;;;;;5092638;28;20051;-67
2023/06/25 05:51:19;;;;;;;14.80;3.70;;;28.50;75.70;;;;;;5091725;28;20493;-67
2023/06/25 05:54:23;;;;;;;11.38;3.33;;;28.60;75.70;;;;;;5092847;28;20043;-67
2023/06/25 05:57:30;;;;;;;11.20;3.78;;;28.80;74.70;;;;;;5091487;28;20498;-67
2023/06/25 06:00:33;;;;;;;9.43;2.90;;;28.90;74.60;;;;;;5092283;28;20051;-67
2023/06/25 06:03:38;;;;;;;11.68;3.40;;;29.00;74.00;;;;;;5092315;28;20036;-67
2023/06/25 06:06:42;;;;;;;11.10;3.75;;;29.00;73.90;;;;;;5092176;28;20043;-67
2023/06/25 06:09:46;;;;;;;10.50;3.35;;;29.10;73.20;;;;;;5092298;28;20091;-67
2023/06/25 06:12:49;;;;;;;9.70;3.17;;;28.90;72.70;;;;;;5092060;28;20096;-67
2023/06/25 06:15:53;;;;;;;10.88;3.35;;;28.80;73.00;;;;;;5091988;28;20035;-67
2023/06/25 06:18:57;;;;;;;7.07;3.35;;;29.00;73.00;;;;;;5091981;28;20387;-67
2023/06/25 06:22:01;;;;;;;6.47;3.10;;;29.30;72.80;;;;;;5091371;28;20047;-67
2023/06/25 06:25:05;;;;;;;12.15;3.65;;;29.50;71.50;;;;;;5092238;28;20035;-67
2023/06/25 06:28:09;;;;;;;12.23;3.58;;;29.60;71.00;;;;;;5091491;28;20051;-67
2023/06/25 06:31:13;;;;;;;11.43;3.00;;;29.60;70.60;;;;;;5091800;28;20059;-67
2023/06/25 06:34:17;;;;;;;12.38;3.40;;;29.90;71.00;;;;;;5091975;28;20510;-67
2023/06/25 06:37:22;;;;;;;11.10;3.20;;;30.10;70.80;;;;;;5091114;28;20047;-67
2023/06/25 06:40:25;;;;;;;9.48;2.88;;;30.30;70.50;;;;;;5091715;28;20039;-67
2023/06/25 06:43:30;;;;;;;12.00;3.80;;;30.10;70.50;;;;;;5091461;28;20040;-67
2023/06/25 06:46:34;;;;;;;11.13;3.40;;;30.30;69.70;;;;;;5091437;28;20106;-67
2023/06/25 06:49:38;;;;;;;6.13;3.38;;;30.40;69.30;;;;;;5091328;28;20621;-67
2023/06/25 06:52:43;;;;;;;7.13;3.20;;;30.30;68.50;;;;;;5091538;28;20031;-67
2023/06/25 06:55:47;;;;;;;7.65;3.30;;;30.40;68.80;;;;;;5091338;28;20048;-67
2023/06/25 06:58:51;;;;;;;8.38;3.05;;;30.50;68.80;;;;;;5091526;28;20551;-67
2023/06/25 07:01:55;;;;;;;8.68;3.08;;;30.30;68.00;;;;;;5091408;28;20036;-67
2023/06/25 07:04:59;;;;;;;7.43;3.20;;;30.30;67.90;;;;;;5091336;28;20048;-67
2023/06/25 07:08:03;;;;;;;14.45;3.63;;;30.10;68.00;;;;;;5091003;28;20035;-67
2023/06/25 07:11:07;;;;;;;18.05;4.03;;;29.80;68.80;;;;;;5091484;28;20043;-67
2023/06/25 07:14:12;;;;;;;10.45;3.40;;;29.70;69.90;;;;;;5090468;28;20039;-67
2023/06/25 07:17:16;;;;;;;7.93;3.20;;;30.00;69.40;;;;;;5090753;28;20387;-66
2023/06/25 07:20:20;;;;;;;9.25;3.45;;;30.10;68.90;;;;;;5091116;28;20143;-66
2023/06/25 07:23:24;;;;;;;10.40;3.33;;;30.30;68.80;;;;;;5091207;28;20043;-67
2023/06/25 07:26:28;;;;;;;6.63;3.70;;;29.80;68.80;;;;;;5091062;28;20514;-67
2023/06/25 07:29:32;;;;;;;12.73;3.17;;;30.00;69.30;;;;;;5091038;28;20510;-67
2023/06/25 07:32:36;;;;;;;14.40;4.05;;;30.20;68.70;;;;;;5090792;28;20047;-67
2023/06/25 07:35:40;;;;;;;10.70;3.35;;;30.00;69.50;;;;;;5090644;28;20051;-68
2023/06/25 07:38:44;;;;;;;22.73;4.55;;;30.10;69.50;;;;;;5090562;28;20066;-67
2023/06/25 07:41:48;;;;;;;6.65;2.95;;;29.80;70.00;;;;;;5089871;28;20046;-67
2023/06/25 07:44:52;;;;;;;6.78;3.20;;;30.00;70.30;;;;;;5090823;28;20040;-67
2023/06/25 07:47:56;;;;;;;6.65;3.30;;;30.30;69.60;;;;;;5090908;28;20052;-67
2023/06/25 07:51:00;;;;;;;11.52;3.28;;;30.50;69.00;;;;;;5090639;28;20043;-67
2023/06/25 07:54:04;;;;;;;15.82;3.78;;;30.50;69.40;;;;;;5090837;28;20050;-67
2023/06/25 07:57:08;;;;;;;17.02;3.75;;;30.30;69.50;;;;;;5090902;28;20047;-67
2023/06/25 08:00:13;;;;;;;9.50;3.30;;;30.40;70.50;;;;;;5090609;28;20498;-67
2023/06/25 08:03:17;;;;;;;11.95;3.65;;;30.90;70.20;;;;;;5090763;28;20494;-67
2023/06/25 08:06:20;;;;;;;9.35;3.53;;;31.20;68.60;;;;;;5090080;28;20055;-67
2023/06/25 08:09:24;;;;;;;19.73;4.65;;;30.90;69.10;;;;;;5090564;28;20040;-67
2023/06/25 08:12:28;;;;;;;15.55;3.88;;;30.70;69.00;;;;;;5090432;28;20058;-67
2023/06/25 08:15:32;;;;;;;8.43;3.38;;;30.50;69.80;;;;;;5094249;28;20043;-67
2023/06/25 08:18:36;;;;;;;13.30;4.28;;;30.10;70.20;;;;;;5094466;28;20040;-67
2023/06/25 08:21:40;;;;;;;11.13;3.00;;;30.00;70.30;;;;;;5093183;28;20047;-67
2023/06/25 08:24:47;;;;;;;10.57;3.38;;;29.80;71.30;;;;;;5094381;28;20043;-67
2023/06/25 08:27:51;;;;;;;12.70;3.20;;;29.90;71.90;;;;;;5094001;28;20047;-67
2023/06/25 08:30:58;;;;;;;15.45;3.13;;;30.20;71.40;;;;;;5093853;28;20150;-67
2023/06/25 08:34:02;;;;;;;8.43;3.67;;;30.50;71.50;;;;;;5094184;28;20043;-67
2023/06/25 08:37:06;;;;;;;11.52;3.47;;;30.60;70.70;;;;;;5093701;28;20052;-67
2023/06/25 08:40:11;;;;;;;9.48;3.40;;;30.80;70.20;;;;;;5094056;28;20042;-67
2023/06/25 08:43:15;;;;;;;19.08;3.58;;;30.90;70.00;;;;;;5093826;28;20040;-67
2023/06/25 08:46:22;;;;;;;15.63;3.72;;;31.10;69.90;;;;;;5093928;28;20039;-68
2023/06/25 08:49:30;;;;;;;8.30;3.40;;;30.80;70.30;;;;;;5093537;28;20055;-68
2023/06/25 08:52:34;;;;;;;9.00;3.40;;;30.80;70.90;;;;;;5093486;28;20029;-68
2023/06/25 08:55:41;;;;;;;15.60;3.63;;;30.80;70.90;;;;;;5093669;28;20043;-67
2023/06/25 08:58:45;;;;;;;12.32;4.13;;;30.50;71.10;;;;;;5092576;28;20043;-67
2023/06/25 09:01:49;;;;;;;6.78;3.60;;;30.40;70.80;;;;;;5093455;28;20047;-68
2023/06/25 09:04:53;;;;;;;11.65;4.20;;;30.40;70.40;;;;;;5093694;28;20028;-67
2023/06/25 09:07:57;;;;;;;16.33;3.72;;;30.20;70.80;;;;;;5093040;28;20047;-68
2023/06/25 09:11:01;;;;;;;6.88;4.28;;;30.20;70.80;;;;;;5093208;28;20050;-67
2023/06/25 09:14:05;;;;;;;22.23;4.53;;;30.30;70.20;;;;;;5093626;28;20058;-67
2023/06/25 09:17:09;;;;;;;10.55;4.28;;;30.30;70.80;;;;;;5092972;28;20059;-68
2023/06/25 09:20:13;;;;;;;7.65;3.55;;;30.30;71.10;;;;;;5093372;28;20039;-67
2023/06/25 09:23:22;;;;;;;9.02;3.67;;;30.30;70.80;;;;;;5093509;28;20043;-67
2023/06/25 09:26:27;;;;;;;10.90;3.92;;;30.40;70.90;;;;;;5092647;28;20035;-67
2023/06/25 09:29:35;;;;;;;10.00;4.00;;;30.50;70.70;;;;;;5092963;28;20122;-67
2023/06/25 09:32:55;;;;;;;12.82;4.70;;;30.30;70.90;;;;;;5092935;28;20118;-66
2023/06/25 09:36:04;;;;;;;10.57;3.53;;;30.20;71.70;;;;;;5092935;28;20055;-67
2023/06/25 09:39:10;;;;;;;16.08;4.30;;;30.20;72.70;;;;;;5092626;28;20059;-67
2023/06/25 09:42:16;;;;;;;8.05;3.53;;;30.00;72.80;;;;;;5092628;28;20506;-66
2023/06/25 09:45:22;;;;;;;11.93;3.63;;;30.00;72.10;;;;;;5092530;28;20517;-66
2023/06/25 09:48:26;;;;;;;9.52;4.00;;;30.10;71.30;;;;;;5092533;28;20379;-67
2023/06/25 09:51:53;;;;;;;5.90;3.28;;;30.20;71.60;;;;;;5092208;28;20032;-66
2023/06/25 09:54:58;;;;;;;7.15;3.47;;;30.40;71.50;;;;;;5092401;28;20036;-66
2023/06/25 09:58:04;;;;;;;6.50;3.85;;;30.40;71.60;;;;;;5092651;28;20045;-66
2023/06/25 10:01:08;;;;;;;7.13;3.75;;;30.20;71.80;;;;;;5092528;28;20044;-66
2023/06/25 10:04:15;;;;;;;14.18;4.10;;;30.20;71.90;;;;;;5091563;28;20055;-67
2023/06/25 10:07:21;;;;;;;11.10;3.60;;;30.20;72.10;;;;;;5092294;28;20043;-66
2023/06/25 10:10:29;;;;;;;6.70;3.58;;;30.30;71.10;;;;;;5092178;28;20059;-67
2023/06/25 10:13:38;;;;;;;9.10;3.90;;;30.10;72.40;;;;;;5092394;28;20036;-67
2023/06/25 10:16:54;;;;;;;12.65;3.80;;;29.90;71.90;;;;;;5092076;28;20040;-67
2023/06/25 10:19:59;;;;;;;7.68;3.80;;;30.00;71.60;;;;;;5092307;28;20047;-67
2023/06/25 10:23:08;;;;;;;8.93;4.15;;;30.00;71.80;;;;;;5091782;28;20040;-67
2023/06/25 10:26:13;;;;;;;11.43;3.60;;;30.20;71.80;;;;;;5092109;28;20047;-66
2023/06/25 10:29:16;;;;;;;16.10;4.35;;;30.20;72.00;;;;;;5091779;28;20055;-67
2023/06/25 10:32:22;;;;;;;12.07;3.67;;;30.20;72.00;;;;;;5091853;28;20035;-66
2023/06/25 10:35:26;;;;;;;10.80;3.72;;;30.00;71.90;;;;;;5091647;28;20051;-67
2023/06/25 10:38:30;;;;;;;8.70;4.03;;;30.10;72.10;;;;;;5090445;28;20055;-67
2023/06/25 10:41:36;;;;;;;12.98;3.75;;;30.10;71.40;;;;;;5091613;28;20043;-68
2023/06/25 10:44:40;;;;;;;7.95;3.83;;;30.30;71.30;;;;;;5091623;28;20038;-68
2023/06/25 10:47:44;;;;;;;16.15;4.15;;;30.30;70.40;;;;;;5091462;28;20036;-68
2023/06/25 10:50:50;;;;;;;7.25;4.03;;;30.40;71.00;;;;;;5090933;28;20055;-67
2023/06/25 10:53:55;;;;;;;8.27;3.97;;;30.30;72.00;;;;;;5090453;28;20032;-69
2023/06/25 10:57:10;;;;;;;8.63;3.63;;;30.20;71.10;;;;;;5090848;28;20043;-68
2023/06/25 11:00:14;;;;;;;8.30;3.45;;;30.20;70.30;;;;;;5091431;28;20032;-68
2023/06/25 11:03:18;;;;;;;8.45;3.70;;;30.20;71.00;;;;;;5091580;28;20059;-67
2023/06/25 11:06:22;;;;;;;9.70;3.70;;;30.30;71.30;;;;;;5091495;28;20047;-67
2023/06/25 11:09:28;;;;;;;10.23;3.65;;;30.50;70.60;;;;;;5090159;28;20055;-67
2023/06/25 11:12:31;;;;;;;7.07;3.95;;;30.50;70.70;;;;;;5091284;28;20039;-67
2023/06/25 11:15:35;;;;;;;8.23;4.05;;;30.40;70.70;;;;;;5091185;28;20044;-67
2023/06/25 11:18:39;;;;;;;10.77;3.90;;;30.40;71.50;;;;;;5091326;28;20044;-67
2023/06/25 11:21:43;;;;;;;9.68;4.25;;;30.50;71.20;;;;;;5091083;28;20039;-67
2023/06/25 11:24:48;;;;;;;9.18;3.85;;;30.40;70.30;;;;;;5091042;28;20048;-67
2023/06/25 11:28:02;;;;;;;12.02;4.10;;;30.50;70.90;;;;;;5090844;28;20037;-67
2023/06/25 11:31:06;;;;;;;9.20;4.13;;;30.60;71.20;;;;;;5091061;28;20047;-67
2023/06/25 11:34:20;;;;;;;6.88;4.00;;;30.60;69.70;;;;;;5091270;28;20047;-67
2023/06/25 11:37:27;;;;;;;11.00;4.25;;;30.60;69.90;;;;;;5089704;28;20044;-67
2023/06/25 11:40:33;;;;;;;10.30;4.18;;;30.70;70.00;;;;;;5090821;28;20047;-66
2023/06/25 11:43:38;;;;;;;7.97;4.80;;;30.60;70.50;;;;;;5091043;28;20043;-67
2023/06/25 11:46:46;;;;;;;12.07;5.00;;;30.60;69.90;;;;;;5091016;28;20043;-67
2023/06/25 11:49:55;;;;;;;8.35;3.70;;;30.60;69.90;;;;;;5093433;28;20070;-67
2023/06/25 11:52:59;;;;;;;13.13;4.68;;;30.60;68.80;;;;;;5094997;28;20043;-67
2023/06/25 11:56:03;;;;;;;12.77;4.88;;;30.60;69.30;;;;;;5095082;28;20055;-67
2023/06/25 11:59:07;;;;;;;8.02;3.97;;;30.70;69.90;;;;;;5094908;28;20043;-67
2023/06/25 12:02:11;;;;;;;6.53;4.05;;;30.90;69.70;;;;;;5094995;28;20059;-67
2023/06/25 12:05:15;;;;;;;8.15;4.43;;;30.80;68.60;;;;;;5094755;28;20376;-67
2023/06/25 12:08:20;;;;;;;10.73;4.32;;;30.80;68.80;;;;;;5094598;28;20047;-67
2023/06/25 12:11:24;;;;;;;5.22;3.85;;;30.90;68.90;;;;;;5094667;28;20043;-68
2023/06/25 12:14:28;;;;;;;6.85;4.40;;;30.90;69.50;;;;;;5094746;28;20036;-67
2023/06/25 12:17:32;;;;;;;12.50;5.07;;;31.00;69.30;;;;;;5094609;28;20044;-67
2023/06/25 12:20:36;;;;;;;8.77;4.30;;;31.10;68.50;;;;;;5094836;28;20056;-67
2023/06/25 12:23:40;;;;;;;12.48;4.03;;;31.20;68.60;;;;;;5094813;28;20043;-67
2023/06/25 12:26:45;;;;;;;6.80;4.30;;;31.10;68.50;;;;;;5094060;28;20039;-67
2023/06/25 12:29:49;;;;;;;10.95;4.30;;;31.10;68.10;;;;;;5094243;28;20044;-67
2023/06/25 12:32:53;;;;;;;10.25;4.60;;;31.00;68.80;;;;;;5094321;28;20047;-67
2023/06/25 12:35:57;;;;;;;9.73;4.00;;;31.00;69.30;;;;;;5093104;28;20434;-67
2023/06/25 12:39:01;;;;;;;7.40;4.38;;;31.00;68.70;;;;;;5093904;28;20518;-67
2023/06/25 12:42:05;;;;;;;6.90;3.97;;;31.00;68.30;;;;;;5094232;28;20056;-66
2023/06/25 12:45:09;;;;;;;6.78;4.22;;;31.10;68.30;;;;;;5094049;28;20039;-67
2023/06/25 12:48:14;;;;;;;10.88;4.15;;;31.10;67.90;;;;;;5093515;28;20032;-67
2023/06/25 12:51:17;;;;;;;12.93;5.00;;;31.10;67.80;;;;;;5093756;28;20062;-67
2023/06/25 12:54:24;;;;;;;10.80;4.75;;;31.00;68.70;;;;;;5093971;28;20398;-67
2023/06/25 12:57:29;;;;;;;8.52;4.65;;;31.00;68.80;;;;;;5093911;28;20047;-67
2023/06/25 13:00:33;;;;;;;8.38;4.10;;;30.70;68.40;;;;;;5093086;28;20040;-67
2023/06/25 13:03:37;;;;;;;13.75;4.18;;;30.70;68.50;;;;;;5093705;28;20039;-67
2023/06/25 13:06:41;;;;;;;9.05;4.20;;;30.80;69.00;;;;;;5093712;28;20039;-69
2023/06/25 13:09:44;;;;;;;9.88;4.18;;;30.80;68.30;;;;;;5093344;28;20055;-67
2023/06/25 13:12:48;;;;;;;8.57;3.95;;;30.80;68.20;;;;;;5092676;28;20031;-67
2023/06/25 13:15:52;;;;;;;9.13;4.70;;;30.90;69.30;;;;;;5093588;28;20055;-67
2023/06/25 13:18:56;;;;;;;10.63;4.68;;;31.00;69.50;;;;;;5093356;28;20506;-67
2023/06/25 13:22:00;;;;;;;6.93;3.72;;;30.80;69.50;;;;;;5092333;28;20063;-67
2023/06/25 13:25:05;;;;;;;9.77;4.20;;;30.70;69.70;;;;;;5093106;28;20035;-67
2023/06/25 13:28:09;;;;;;;8.48;4.28;;;30.70;70.90;;;;;;5092990;28;20048;-67
2023/06/25 13:31:13;;;;;;;11.00;4.68;;;30.80;72.20;;;;;;5092874;28;20040;-67
2023/06/25 13:34:17;;;;;;;13.13;3.75;;;30.90;70.20;;;;;;5093174;28;20644;-67
2023/06/25 13:37:20;;;;;;;8.25;4.18;;;31.00;69.40;;;;;;5092884;28;20050;-68
2023/06/25 13:40:24;;;;;;;8.02;3.80;;;31.00;69.70;;;;;;5092916;28;20036;-67
2023/06/25 13:43:28;;;;;;;9.02;4.38;;;30.80;69.80;;;;;;5092848;28;20044;-67
2023/06/25 13:46:32;;;;;;;9.57;3.95;;;30.90;70.30;;;;;;5092639;28;20047;-67
2023/06/25 13:49:37;;;;;;;11.65;3.95;;;31.00;70.20;;;;;;5092610;28;20510;-67
2023/06/25 13:52:41;;;;;;;9.13;4.22;;;31.00;69.40;;;;;;5092649;28;20038;-68
2023/06/25 13:55:45;;;;;;;9.88;4.68;;;31.00;69.10;;;;;;5092080;28;20036;-67
2023/06/25 13:58:49;;;;;;;8.93;4.38;;;31.00;68.80;;;;;;5092804;28;20391;-67
2023/06/25 14:01:53;;;;;;;9.27;4.80;;;30.90;68.80;;;;;;5092514;28;20364;-67
2023/06/25 14:04:57;;;;;;;9.65;4.65;;;30.90;68.60;;;;;;5091373;28;20399;-67
2023/06/25 14:08:02;;;;;;;11.30;3.88;;;30.90;70.20;;;;;;5092431;28;20037;-67
2023/06/25 14:11:06;;;;;;;10.98;4.32;;;31.00;69.70;;;;;;5091668;28;20047;-67
2023/06/25 14:14:10;;;;;;;14.80;4.50;;;31.10;67.90;;;;;;5092463;28;20043;-68
2023/06/25 14:17:14;;;;;;;8.32;4.07;;;31.10;67.90;;;;;;5092075;28;20043;-68
2023/06/25 14:20:18;;;;;;;10.60;4.50;;;31.20;68.00;;;;;;5092139;28;20487;-67
2023/06/25 14:23:22;;;;;;;11.00;4.03;;;31.20;68.30;;;;;;5091975;28;20055;-67
2023/06/25 14:26:26;;;;;;;8.60;4.43;;;31.20;68.90;;;;;;5091278;28;20058;-67
2023/06/25 14:29:30;;;;;;;9.38;4.25;;;31.20;68.90;;;;;;5091507;28;20055;-68
2023/06/25 14:32:34;;;;;;;13.15;4.22;;;31.20;68.00;;;;;;5091984;28;20039;-68
2023/06/25 14:35:38;;;;;;;11.93;4.65;;;31.10;69.00;;;;;;5091788;28;20048;-68
2023/06/25 14:38:41;;;;;;;11.73;4.65;;;31.00;68.90;;;;;;5090504;28;20055;-68
2023/06/25 14:41:45;;;;;;;7.50;4.03;;;31.00;69.80;;;;;;5091784;28;20058;-68
2023/06/25 14:44:49;;;;;;;11.57;4.50;;;31.00;70.60;;;;;;5091621;28;20051;-68
2023/06/25 14:47:53;;;;;;;8.52;4.30;;;31.00;70.10;;;;;;5091406;28;20046;-68
2023/06/25 14:50:57;;;;;;;9.38;4.88;;;31.00;69.60;;;;;;5091429;28;20048;-68
2023/06/25 14:54:02;;;;;;;12.27;4.45;;;31.10;69.70;;;;;;5091650;28;20046;-68
2023/06/25 14:57:06;;;;;;;11.80;3.67;;;31.10;71.20;;;;;;5091353;28;20391;-68
2023/06/25 15:00:11;;;;;;;8.68;3.72;;;31.00;70.80;;;;;;5091321;28;20039;-68
2023/06/25 15:03:15;;;;;;;9.00;4.38;;;31.00;70.90;;;;;;5079266;28;20391;-68
2023/06/25 15:06:18;;;;;;;7.63;3.90;;;30.90;70.50;;;;;;5090442;28;20036;-68
2023/06/25 15:09:22;;;;;;;6.88;3.88;;;30.80;70.40;;;;;;5091058;28;20063;-68
2023/06/25 15:12:27;;;;;;;10.68;3.63;;;30.80;70.60;;;;;;5091304;28;20024;-68
2023/06/25 15:15:31;;;;;;;7.28;4.25;;;30.80;71.60;;;;;;5091163;28;20391;-69
2023/06/25 15:18:35;;;;;;;11.15;4.05;;;30.80;70.90;;;;;;5091363;28;20056;-68
2023/06/25 15:21:39;;;;;;;9.20;3.88;;;30.90;70.80;;;;;;5090219;28;20039;-68
2023/06/25 15:24:43;;;;;;;8.88;3.60;;;30.90;70.40;;;;;;5091275;28;20506;-69
2023/06/25 15:27:48;;;;;;;11.70;3.92;;;30.90;70.50;;;;;;5090837;28;20059;-69
2023/06/25 15:30:52;;;;;;;7.78;4.05;;;30.90;70.70;;;;;;5090940;28;20387;-68
2023/06/25 15:33:56;;;;;;;7.90;3.47;;;30.90;70.10;;;;;;5090224;28;20388;-69
2023/06/25 15:37:04;;;;;;;9.25;4.38;;;30.80;70.50;;;;;;5090489;28;20032;-68
2023/06/25 15:40:08;;;;;;;11.27;4.20;;;30.80;70.40;;;;;;5091171;28;20040;-69
2023/06/25 15:43:12;;;;;;;8.30;4.15;;;30.70;70.60;;;;;;5090960;28;20513;-69
2023/06/25 15:46:17;;;;;;;6.90;3.50;;;30.60;70.00;;;;;;5090561;28;20056;-69
2023/06/25 15:49:21;;;;;;;10.40;4.03;;;30.60;70.30;;;;;;5090148;28;20514;-69
2023/06/25 15:52:24;;;;;;;10.30;3.80;;;30.60;70.70;;;;;;5090838;28;20499;-69
2023/06/25 15:55:28;;;;;;;6.32;3.60;;;30.50;70.60;;;;;;5089851;28;20063;-69
2023/06/25 15:58:34;;;;;;;9.32;3.45;;;30.50;70.60;;;;;;5091035;28;20036;-68
2023/06/25 16:01:37;;;;;;;5.72;3.45;;;30.50;70.70;;;;;;5090968;28;20040;-69
2023/06/25 16:04:41;;;;;;;9.40;3.90;;;30.30;70.30;;;;;;5090992;28;20041;-68
2023/06/25 16:07:45;;;;;;;9.35;4.18;;;30.30;71.20;;;;;;5090684;28;20036;-68
2023/06/25 16:10:50;;;;;;;9.45;4.13;;;30.30;71.20;;;;;;5090522;28;20040;-68
2023/06/25 16:13:54;;;;;;;7.93;3.25;;;30.40;71.00;;;;;;5090821;28;20047;-68
2023/06/25 16:16:58;;;;;;;8.38;3.53;;;30.40;71.00;;;;;;5090669;28;20043;-68
2023/06/25 16:20:02;;;;;;;7.53;3.42;;;30.40;71.10;;;;;;5090820;28;20033;-68
2023/06/25 16:23:06;;;;;;;7.78;3.63;;;30.50;71.40;;;;;;5090783;28;20059;-68
2023/06/25 16:26:10;;;;;;;13.30;4.22;;;30.50;70.90;;;;;;5090257;28;20032;-68
2023/06/25 16:29:14;;;;;;;9.55;4.63;;;30.40;70.60;;;;;;5090585;28;20051;-68
2023/06/25 16:32:18;;;;;;;10.43;3.60;;;30.40;71.20;;;;;;5090426;28;20041;-68
2023/06/25 16:35:22;;;;;;;11.10;3.75;;;30.30;70.90;;;;;;5092198;28;20047;-67
2023/06/25 16:38:27;;;;;;;8.05;3.35;;;30.20;71.10;;;;;;5093913;28;20055;-67
2023/06/25 16:41:33;;;;;;;7.50;3.55;;;30.10;71.10;;;;;;5094192;28;20043;-67
2023/06/25 16:44:37;;;;;;;8.73;3.40;;;30.10;71.30;;;;;;5094242;28;20040;-67
2023/06/25 16:47:41;;;;;;;10.35;3.42;;;30.10;71.80;;;;;;5093987;28;20040;-67
2023/06/25 16:50:45;;;;;;;6.50;3.38;;;30.10;71.20;;;;;;5093608;28;20510;-67
2023/06/25 16:53:52;;;;;;;6.57;3.30;;;30.10;71.60;;;;;;5093721;28;20040;-67